sensor_id;sensor_type;location;lat;lon;timestamp;pressure;altitude;pressure_sealevel;temperature;humidity
4123;BME280;2075;51.062;6.920;2022-07-06T00:01:45;93455.09;;;-144.48;70.19
4123;BME280;2075;51.062;6.920;2022-07-06T00:04:31;93394.16;;;-144.48;69.88
4123;BME280;2075;51.062;6.920;2022-07-06T00:07:16;93465.25;;;-144.48;70.05
4123;BME280;2075;51.062;6.920;2022-07-06T00:10:02;93446.97;;;-144.48;69.88
4123;BME280;2075;51.062;6.920;2022-07-06T00:12:48;93444.94;;;-144.48;70.56
4123;BME280;2075;51.062;6.920;2022-07-06T00:15:33;93489.63;;;-144.48;71.49
4123;BME280;2075;51.062;6.920;2022-07-06T00:18:20;93548.53;;;-144.48;71.41
4123;BME280;2075;51.062;6.920;2022-07-06T00:21:06;93451.03;;;-144.48;71.19
4123;BME280;2075;51.062;6.920;2022-07-06T00:23:51;93503.84;;;-144.48;71.35
4123;BME280;2075;51.062;6.920;2022-07-06T00:26:37;93520.09;;;-144.48;72.08
4123;BME280;2075;51.062;6.920;2022-07-06T00:29:22;93534.31;;;-144.48;72.81
4123;BME280;2075;51.062;6.920;2022-07-06T00:32:08;93507.91;;;-144.48;73.21
4123;BME280;2075;51.062;6.920;2022-07-06T00:34:55;93542.44;;;-144.48;73.25
4123;BME280;2075;51.062;6.920;2022-07-06T00:37:40;93483.53;;;-144.48;73.07
4123;BME280;2075;51.062;6.920;2022-07-06T00:40:26;93544.47;;;-144.48;73.70
4123;BME280;2075;51.062;6.920;2022-07-06T00:43:11;93544.47;;;-144.48;74.31
4123;BME280;2075;51.062;6.920;2022-07-06T00:45:57;93516.03;;;-144.48;74.15
4123;BME280;2075;51.062;6.920;2022-07-06T00:48:43;93564.78;;;-144.48;74.66
4123;BME280;2075;51.062;6.920;2022-07-06T00:51:31;93560.72;;;-144.48;74.75
4123;BME280;2075;51.062;6.920;2022-07-06T00:54:17;93530.25;;;-144.48;74.90
4123;BME280;2075;51.062;6.920;2022-07-06T00:57:03;93522.13;;;-144.48;74.87
4123;BME280;2075;51.062;6.920;2022-07-06T00:59:48;93595.25;;;-144.48;74.94
4123;BME280;2075;51.062;6.920;2022-07-06T01:02:35;93603.38;;;-144.48;76.07
4123;BME280;2075;51.062;6.920;2022-07-06T01:05:21;93639.94;;;-144.48;76.77
4123;BME280;2075;51.062;6.920;2022-07-06T01:08:07;93574.94;;;-144.48;76.86
4123;BME280;2075;51.062;6.920;2022-07-06T01:10:53;93562.75;;;-144.48;76.95
4123;BME280;2075;51.062;6.920;2022-07-06T01:13:39;93601.34;;;-144.48;77.52
4123;BME280;2075;51.062;6.920;2022-07-06T01:16:25;93601.34;;;-144.48;77.81
4123;BME280;2075;51.062;6.920;2022-07-06T01:19:10;93639.94;;;-144.48;78.52
4123;BME280;2075;51.062;6.920;2022-07-06T01:21:57;93684.63;;;-144.48;78.81
4123;BME280;2075;51.062;6.920;2022-07-06T01:24:43;93627.75;;;-144.48;79.48
4123;BME280;2075;51.062;6.920;2022-07-06T01:27:29;93644.00;;;-144.48;79.58
4123;BME280;2075;51.062;6.920;2022-07-06T01:30:16;93920.28;;;-144.48;79.49
4123;BME280;2075;51.062;6.920;2022-07-06T01:33:01;93676.50;;;-144.48;79.95
4123;BME280;2075;51.062;6.920;2022-07-06T01:35:48;93672.44;;;-144.48;81.18
4123;BME280;2075;51.062;6.920;2022-07-06T01:38:44;93696.81;;;-144.48;81.56
4123;BME280;2075;51.062;6.920;2022-07-06T01:41:30;93692.75;;;-144.48;81.30
4123;BME280;2075;51.062;6.920;2022-07-06T01:44:16;93688.69;;;-144.48;81.62
4123;BME280;2075;51.062;6.920;2022-07-06T01:47:02;93700.88;;;-144.48;81.87
4123;BME280;2075;51.062;6.920;2022-07-06T01:49:47;93704.94;;;-144.48;81.20
4123;BME280;2075;51.062;6.920;2022-07-06T01:52:34;93664.31;;;-144.48;81.43
4123;BME280;2075;51.062;6.920;2022-07-06T01:55:22;93674.47;;;-144.48;81.71
4123;BME280;2075;51.062;6.920;2022-07-06T01:58:08;93692.75;;;-144.48;81.47
4123;BME280;2075;51.062;6.920;2022-07-06T02:00:53;93684.63;;;-144.48;80.94
4123;BME280;2075;51.062;6.920;2022-07-06T02:03:39;93680.56;;;-144.48;81.00
4123;BME280;2075;51.062;6.920;2022-07-06T02:06:26;93672.44;;;-144.48;80.96
4123;BME280;2075;51.062;6.920;2022-07-06T02:09:11;93672.44;;;-144.48;81.29
4123;BME280;2075;51.062;6.920;2022-07-06T02:11:58;93579.00;;;-144.48;80.94
4123;BME280;2075;51.062;6.920;2022-07-06T02:14:43;93692.75;;;-144.48;81.49
4123;BME280;2075;51.062;6.920;2022-07-06T02:17:29;93684.63;;;-144.48;81.42
4123;BME280;2075;51.062;6.920;2022-07-06T02:20:14;93684.63;;;-144.48;80.86
4123;BME280;2075;51.062;6.920;2022-07-06T02:23:00;93836.97;;;-144.48;80.92
4123;BME280;2075;51.062;6.920;2022-07-06T02:25:45;93694.78;;;-144.48;81.04
4123;BME280;2075;51.062;6.920;2022-07-06T02:28:32;93696.81;;;-144.48;81.32
4123;BME280;2075;51.062;6.920;2022-07-06T02:31:17;93715.09;;;-144.48;81.28
4123;BME280;2075;51.062;6.920;2022-07-06T02:34:05;93729.31;;;-144.48;82.66
4123;BME280;2075;51.062;6.920;2022-07-06T02:36:51;93747.59;;;-144.48;82.76
4123;BME280;2075;51.062;6.920;2022-07-06T02:39:37;93733.38;;;-144.48;82.63
4123;BME280;2075;51.062;6.920;2022-07-06T02:42:22;93749.63;;;-144.48;82.71
4123;BME280;2075;51.062;6.920;2022-07-06T02:45:11;93674.47;;;-144.48;83.04
4123;BME280;2075;51.062;6.920;2022-07-06T02:47:56;93658.22;;;-144.48;83.36
4123;BME280;2075;51.062;6.920;2022-07-06T02:50:43;93765.88;;;-144.48;83.55
4123;BME280;2075;51.062;6.920;2022-07-06T02:53:29;93761.81;;;-144.48;83.86
4123;BME280;2075;51.062;6.920;2022-07-06T02:56:15;93776.03;;;-144.48;84.31
4123;BME280;2075;51.062;6.920;2022-07-06T02:59:00;93796.34;;;-144.48;84.44
4123;BME280;2075;51.062;6.920;2022-07-06T03:01:48;93790.25;;;-144.48;84.44
4123;BME280;2075;51.062;6.920;2022-07-06T03:04:35;93806.50;;;-144.48;85.02
4123;BME280;2075;51.062;6.920;2022-07-06T03:07:20;93808.53;;;-144.48;84.95
4123;BME280;2075;51.062;6.920;2022-07-06T03:10:06;93786.19;;;-144.48;85.37
4123;BME280;2075;51.062;6.920;2022-07-06T03:12:52;93737.44;;;-144.48;85.02
4123;BME280;2075;51.062;6.920;2022-07-06T03:15:37;93778.06;;;-144.48;85.46
4123;BME280;2075;51.062;6.920;2022-07-06T03:18:25;93810.56;;;-144.48;85.90
4123;BME280;2075;51.062;6.920;2022-07-06T03:21:11;93814.63;;;-144.48;86.34
4123;BME280;2075;51.062;6.920;2022-07-06T03:23:56;93796.34;;;-144.48;86.20
4123;BME280;2075;51.062;6.920;2022-07-06T03:26:42;93808.53;;;-144.48;86.40
4123;BME280;2075;51.062;6.920;2022-07-06T03:29:29;93832.91;;;-144.48;86.96
4123;BME280;2075;51.062;6.920;2022-07-06T03:32:14;93843.06;;;-144.48;87.07
4123;BME280;2075;51.062;6.920;2022-07-06T03:35:01;93830.88;;;-144.48;87.00
4123;BME280;2075;51.062;6.920;2022-07-06T03:37:48;93808.53;;;-144.48;87.14
4123;BME280;2075;51.062;6.920;2022-07-06T03:40:34;93802.44;;;-144.48;87.26
4123;BME280;2075;51.062;6.920;2022-07-06T03:43:19;93794.31;;;-144.48;87.53
4123;BME280;2075;51.062;6.920;2022-07-06T03:46:06;93794.31;;;-144.48;87.44
4123;BME280;2075;51.062;6.920;2022-07-06T03:48:52;93814.63;;;-144.48;87.36
4123;BME280;2075;51.062;6.920;2022-07-06T03:51:38;93757.75;;;-144.48;87.77
4123;BME280;2075;51.062;6.920;2022-07-06T03:54:25;93767.91;;;-144.48;87.30
4123;BME280;2075;51.062;6.920;2022-07-06T03:57:15;93769.94;;;-144.48;85.79
4123;BME280;2075;51.062;6.920;2022-07-06T04:00:01;93763.84;;;-144.48;85.53
4123;BME280;2075;51.062;6.920;2022-07-06T04:02:47;93704.94;;;-144.48;84.42
4123;BME280;2075;51.062;6.920;2022-07-06T04:05:38;93702.91;;;-144.48;83.64
4123;BME280;2075;51.062;6.920;2022-07-06T04:08:25;93686.66;;;-144.48;83.17
4123;BME280;2075;51.062;6.920;2022-07-06T04:11:14;93664.31;;;-144.48;82.21
4123;BME280;2075;51.062;6.920;2022-07-06T04:14:00;93650.09;;;-144.48;82.17
4123;BME280;2075;51.062;6.920;2022-07-06T04:16:45;93674.47;;;-144.48;82.07
4123;BME280;2075;51.062;6.920;2022-07-06T04:19:31;93623.69;;;-144.48;81.35
4123;BME280;2075;51.062;6.920;2022-07-06T04:22:16;93621.66;;;-144.48;80.37
4123;BME280;2075;51.062;6.920;2022-07-06T04:25:04;93609.47;;;-144.48;79.85
4123;BME280;2075;51.062;6.920;2022-07-06T04:29:04;93467.28;;;-144.48;79.11
4123;BME280;2075;51.062;6.920;2022-07-06T04:31:50;93595.25;;;-144.48;79.15
4123;BME280;2075;51.062;6.920;2022-07-06T04:34:35;93615.56;;;-144.48;78.82
4123;BME280;2075;51.062;6.920;2022-07-06T04:37:21;93558.69;;;-144.48;79.04
4123;BME280;2075;51.062;6.920;2022-07-06T04:42:00;93593.22;;;-144.48;79.15
4123;BME280;2075;51.062;6.920;2022-07-06T04:44:45;93609.47;;;-144.48;78.89
4123;BME280;2075;51.062;6.920;2022-07-06T04:50:00;93530.25;;;-144.48;77.57
4123;BME280;2075;51.062;6.920;2022-07-06T04:52:46;93516.03;;;-144.48;76.53
4123;BME280;2075;51.062;6.920;2022-07-06T04:55:32;93511.97;;;-144.48;75.26
4123;BME280;2075;51.062;6.920;2022-07-06T04:58:17;93459.16;;;-144.48;75.81
4123;BME280;2075;51.062;6.920;2022-07-06T05:01:04;93048.88;;;-144.48;62.46
4123;BME280;2075;51.062;6.920;2022-07-06T05:03:50;93046.84;;;-144.48;56.46
4123;BME280;2075;51.062;6.920;2022-07-06T05:06:40;93209.34;;;-144.48;63.00
4123;BME280;2075;51.062;6.920;2022-07-06T05:09:26;93249.97;;;-144.48;67.51
4123;BME280;2075;51.062;6.920;2022-07-06T05:12:12;93294.63;;;-144.48;66.57
4123;BME280;2075;51.062;6.920;2022-07-06T05:14:58;92916.88;;;-144.48;58.31
4123;BME280;2075;51.062;6.920;2022-07-06T05:17:44;92529.00;;;-144.48;42.86
4123;BME280;2075;51.062;6.920;2022-07-06T05:20:31;92650.84;;;-144.48;44.71
4123;BME280;2075;51.062;6.920;2022-07-06T05:23:17;92547.28;;;-144.48;42.97
4123;BME280;2075;51.062;6.920;2022-07-06T05:26:03;92685.38;;;-144.48;44.49
4123;BME280;2075;51.062;6.920;2022-07-06T05:28:49;92685.38;;;-144.48;44.15
4123;BME280;2075;51.062;6.920;2022-07-06T05:31:38;92732.06;;;-144.48;45.38
4123;BME280;2075;51.062;6.920;2022-07-06T05:34:25;92608.19;;;-144.48;44.58
4123;BME280;2075;51.062;6.920;2022-07-06T05:37:10;92620.38;;;-144.48;43.07
4123;BME280;2075;51.062;6.920;2022-07-06T05:39:57;93087.47;;;-144.48;46.93
4123;BME280;2075;51.062;6.920;2022-07-06T05:42:43;92780.81;;;-144.48;46.26
4123;BME280;2075;51.062;6.920;2022-07-06T05:45:29;92839.72;;;-144.48;48.05
4123;BME280;2075;51.062;6.920;2022-07-06T05:48:15;92886.41;;;-144.48;49.67
4123;BME280;2075;51.062;6.920;2022-07-06T05:51:19;92910.78;;;-144.48;49.80
4123;BME280;2075;51.062;6.920;2022-07-06T05:54:05;92908.75;;;-144.48;50.43
4123;BME280;2075;51.062;6.920;2022-07-06T05:56:52;92841.72;;;-144.48;48.85
4123;BME280;2075;51.062;6.920;2022-07-06T05:59:38;92715.81;;;-144.48;46.73
4123;BME280;2075;51.062;6.920;2022-07-06T06:02:24;92713.78;;;-144.48;46.02
4123;BME280;2075;51.062;6.920;2022-07-06T06:05:10;92673.19;;;-144.48;45.36
4123;BME280;2075;51.062;6.920;2022-07-06T06:07:56;92409.19;;;-144.48;41.00
4123;BME280;2075;51.062;6.920;2022-07-06T06:10:44;91854.91;;;-144.48;36.92
4123;BME280;2075;51.062;6.920;2022-07-06T06:13:34;90553.75;;;-144.48;28.83
4123;BME280;2075;51.062;6.920;2022-07-06T06:16:19;89677.13;;;-144.48;25.87
4123;BME280;2075;51.062;6.920;2022-07-06T06:19:05;89107.03;;;-144.48;24.16
4123;BME280;2075;51.062;6.920;2022-07-06T06:21:51;88999.53;;;-144.48;23.86
4123;BME280;2075;51.062;6.920;2022-07-06T06:24:37;88581.66;;;-144.48;22.84
4123;BME280;2075;51.062;6.920;2022-07-06T06:27:22;89021.84;;;-144.48;23.33
4123;BME280;2075;51.062;6.920;2022-07-06T06:30:10;89186.16;;;-144.48;23.26
4123;BME280;2075;51.062;6.920;2022-07-06T06:33:06;89468.16;;;-144.48;23.65
4123;BME280;2075;51.062;6.920;2022-07-06T06:35:52;90606.53;;;-144.48;26.94
4123;BME280;2075;51.062;6.920;2022-07-06T06:38:38;90992.16;;;-144.48;28.46
4123;BME280;2075;51.062;6.920;2022-07-06T06:41:23;91794.00;;;-144.48;32.37
4123;BME280;2075;51.062;6.920;2022-07-06T06:44:09;91846.78;;;-144.48;33.20
4123;BME280;2075;51.062;6.920;2022-07-06T06:46:59;91572.69;;;-144.48;31.68
4123;BME280;2075;51.062;6.920;2022-07-06T06:49:45;92023.41;;;-144.48;34.18
4123;BME280;2075;51.062;6.920;2022-07-06T06:52:30;91077.41;;;-144.48;29.56
4123;BME280;2075;51.062;6.920;2022-07-06T06:55:16;90078.88;;;-144.48;26.38
4123;BME280;2075;51.062;6.920;2022-07-06T06:58:01;90196.59;;;-144.48;26.34
4123;BME280;2075;51.062;6.920;2022-07-06T07:00:47;90119.47;;;-144.48;26.23
4123;BME280;2075;51.062;6.920;2022-07-06T07:03:33;89993.66;;;-144.48;25.49
4123;BME280;2075;51.062;6.920;2022-07-06T07:06:19;90870.38;;;-144.48;28.06
4123;BME280;2075;51.062;6.920;2022-07-06T07:09:04;91349.41;;;-144.48;30.29
4123;BME280;2075;51.062;6.920;2022-07-06T07:11:51;91735.13;;;-144.48;32.26
4123;BME280;2075;51.062;6.920;2022-07-06T07:14:36;91901.59;;;-144.48;33.31
4123;BME280;2075;51.062;6.920;2022-07-06T07:17:21;91865.03;;;-144.48;34.00
4123;BME280;2075;51.062;6.920;2022-07-06T07:20:09;91990.94;;;-144.48;34.93
4123;BME280;2075;51.062;6.920;2022-07-06T07:22:55;92167.56;;;-144.48;35.90
4123;BME280;2075;51.062;6.920;2022-07-06T07:25:41;92443.72;;;-144.48;38.93
4123;BME280;2075;51.062;6.920;2022-07-06T07:28:26;92665.06;;;-144.48;41.46
4123;BME280;2075;51.062;6.920;2022-07-06T07:31:11;92742.22;;;-144.48;44.38
4123;BME280;2075;51.062;6.920;2022-07-06T07:33:57;92768.63;;;-144.48;45.79
4123;BME280;2075;51.062;6.920;2022-07-06T07:36:44;92886.41;;;-144.48;47.32
4123;BME280;2075;51.062;6.920;2022-07-06T07:39:30;92878.28;;;-144.48;48.38
4123;BME280;2075;51.062;6.920;2022-07-06T07:42:15;92744.25;;;-144.48;47.93
4123;BME280;2075;51.062;6.920;2022-07-06T07:45:01;92825.50;;;-144.48;47.30
4123;BME280;2075;51.062;6.920;2022-07-06T07:47:46;92742.22;;;-144.48;45.96
4123;BME280;2075;51.062;6.920;2022-07-06T07:50:32;92661.00;;;-144.48;44.32
4123;BME280;2075;51.062;6.920;2022-07-06T07:53:20;92652.88;;;-144.48;43.27
4123;BME280;2075;51.062;6.920;2022-07-06T07:56:05;92679.28;;;-144.48;43.27
4123;BME280;2075;51.062;6.920;2022-07-06T07:58:51;92583.84;;;-144.48;43.15
4123;BME280;2075;51.062;6.920;2022-07-06T08:01:41;92600.06;;;-144.48;43.65
4123;BME280;2075;51.062;6.920;2022-07-06T08:04:26;92535.09;;;-144.48;42.47
4123;BME280;2075;51.062;6.920;2022-07-06T08:07:12;92541.19;;;-144.48;41.49
4123;BME280;2075;51.062;6.920;2022-07-06T08:09:59;92522.91;;;-144.48;40.50
4123;BME280;2075;51.062;6.920;2022-07-06T08:12:44;92309.69;;;-144.48;38.47
4123;BME280;2075;51.062;6.920;2022-07-06T08:15:30;91345.34;;;-144.48;31.79
4123;BME280;2075;51.062;6.920;2022-07-06T08:18:19;91507.75;;;-144.48;31.70
4123;BME280;2075;51.062;6.920;2022-07-06T08:21:05;91980.78;;;-144.48;33.81
4123;BME280;2075;51.062;6.920;2022-07-06T08:23:51;92106.66;;;-144.48;35.48
4123;BME280;2075;51.062;6.920;2022-07-06T08:26:38;92193.97;;;-144.48;35.98
4123;BME280;2075;51.062;6.920;2022-07-06T08:29:24;91779.78;;;-144.48;31.47
4123;BME280;2075;51.062;6.920;2022-07-06T08:32:09;91077.41;;;-144.48;29.47
4123;BME280;2075;51.062;6.920;2022-07-06T08:34:55;90570.00;;;-144.48;26.98
4123;BME280;2075;51.062;6.920;2022-07-06T08:37:40;90385.31;;;-144.48;25.77
4123;BME280;2075;51.062;6.920;2022-07-06T08:40:31;91004.31;;;-144.48;27.67
4123;BME280;2075;51.062;6.920;2022-07-06T08:43:22;90841.94;;;-144.48;28.04
4123;BME280;2075;51.062;6.920;2022-07-06T08:46:13;90103.25;;;-144.48;25.21
4123;BME280;2075;51.062;6.920;2022-07-06T08:48:59;91180.91;;;-144.48;27.89
4123;BME280;2075;51.062;6.920;2022-07-06T08:51:46;91406.25;;;-144.48;29.39
4123;BME280;2075;51.062;6.920;2022-07-06T08:54:32;91536.16;;;-144.48;29.71
4123;BME280;2075;51.062;6.920;2022-07-06T08:57:19;91611.28;;;-144.48;29.86
4123;BME280;2075;51.062;6.920;2022-07-06T09:00:10;92078.22;;;-144.48;31.96
4123;BME280;2075;51.062;6.920;2022-07-06T09:02:56;92019.34;;;-144.48;31.84
4123;BME280;2075;51.062;6.920;2022-07-06T09:05:45;91704.66;;;-144.48;31.07
4123;BME280;2075;51.062;6.920;2022-07-06T09:08:34;91968.59;;;-144.48;31.21
4123;BME280;2075;51.062;6.920;2022-07-06T09:11:21;92177.72;;;-144.48;31.68
4123;BME280;2075;51.062;6.920;2022-07-06T09:14:07;92059.97;;;-144.48;31.79
4123;BME280;2075;51.062;6.920;2022-07-06T09:17:01;92214.28;;;-144.48;33.60
4123;BME280;2075;51.062;6.920;2022-07-06T09:19:50;92289.41;;;-144.48;34.36
4123;BME280;2075;51.062;6.920;2022-07-06T09:22:36;92236.59;;;-144.48;34.74
4123;BME280;2075;51.062;6.920;2022-07-06T09:25:24;92258.94;;;-144.48;34.67
4123;BME280;2075;51.062;6.920;2022-07-06T09:28:09;92401.06;;;-144.48;35.26
4123;BME280;2075;51.062;6.920;2022-07-06T09:30:55;92356.41;;;-144.48;35.24
4123;BME280;2075;51.062;6.920;2022-07-06T09:33:55;92277.22;;;-144.48;35.43
4123;BME280;2075;51.062;6.920;2022-07-06T09:36:43;92141.19;;;-144.48;34.83
4123;BME280;2075;51.062;6.920;2022-07-06T09:39:29;92102.59;;;-144.48;34.87
4123;BME280;2075;51.062;6.920;2022-07-06T09:42:14;92187.88;;;-144.48;35.08
4123;BME280;2075;51.062;6.920;2022-07-06T09:45:03;92198.03;;;-144.48;35.93
4123;BME280;2075;51.062;6.920;2022-07-06T09:47:50;92267.06;;;-144.48;35.45
4123;BME280;2075;51.062;6.920;2022-07-06T09:50:42;92265.03;;;-144.48;35.41
4123;BME280;2075;51.062;6.920;2022-07-06T09:53:29;92165.53;;;-144.48;34.45
4123;BME280;2075;51.062;6.920;2022-07-06T09:56:14;92206.16;;;-144.48;35.05
4123;BME280;2075;51.062;6.920;2022-07-06T09:59:04;92208.19;;;-144.48;35.58
4123;BME280;2075;51.062;6.920;2022-07-06T10:01:52;92108.69;;;-144.48;35.73
4123;BME280;2075;51.062;6.920;2022-07-06T10:04:38;92193.97;;;-144.48;35.47
4123;BME280;2075;51.062;6.920;2022-07-06T10:07:26;92187.88;;;-144.48;34.96
4123;BME280;2075;51.062;6.920;2022-07-06T10:10:12;92108.69;;;-144.48;34.42
4123;BME280;2075;51.062;6.920;2022-07-06T10:12:59;92124.94;;;-144.48;34.75
4123;BME280;2075;51.062;6.920;2022-07-06T10:15:44;92076.19;;;-144.48;35.82
4123;BME280;2075;51.062;6.920;2022-07-06T10:18:30;92064.03;;;-144.48;34.96
4123;BME280;2075;51.062;6.920;2022-07-06T10:21:16;92059.97;;;-144.48;33.76
4123;BME280;2075;51.062;6.920;2022-07-06T10:24:06;92248.78;;;-144.48;34.59
4123;BME280;2075;51.062;6.920;2022-07-06T10:26:52;92279.25;;;-144.48;35.97
4123;BME280;2075;51.062;6.920;2022-07-06T10:29:38;92557.44;;;-144.48;36.06
4123;BME280;2075;51.062;6.920;2022-07-06T10:32:24;92352.34;;;-144.48;34.77
4123;BME280;2075;51.062;6.920;2022-07-06T10:35:11;92323.91;;;-144.48;34.53
4123;BME280;2075;51.062;6.920;2022-07-06T10:38:04;92226.44;;;-144.48;33.42
4123;BME280;2075;51.062;6.920;2022-07-06T10:41:02;92218.31;;;-144.48;33.68
4123;BME280;2075;51.062;6.920;2022-07-06T10:43:46;92139.13;;;-144.48;33.12
4123;BME280;2075;51.062;6.920;2022-07-06T10:46:34;92171.63;;;-144.48;33.04
4123;BME280;2075;51.062;6.920;2022-07-06T10:49:21;92124.94;;;-144.48;33.70
4123;BME280;2075;51.062;6.920;2022-07-06T10:52:07;92216.31;;;-144.48;33.49
4123;BME280;2075;51.062;6.920;2022-07-06T10:54:56;92143.22;;;-144.48;33.18
4123;BME280;2075;51.062;6.920;2022-07-06T10:57:52;92090.41;;;-144.48;32.54
4123;BME280;2075;51.062;6.920;2022-07-06T11:00:51;92163.50;;;-144.48;32.47
4123;BME280;2075;51.062;6.920;2022-07-06T11:03:41;92059.97;;;-144.48;32.06
4123;BME280;2075;51.062;6.920;2022-07-06T11:06:27;91982.81;;;-144.48;30.87
4123;BME280;2075;51.062;6.920;2022-07-06T11:09:14;92021.38;;;-144.48;30.65
4123;BME280;2075;51.062;6.920;2022-07-06T11:12:11;92222.38;;;-144.48;32.17
4123;BME280;2075;51.062;6.920;2022-07-06T11:14:59;92092.44;;;-144.48;31.82
4123;BME280;2075;51.062;6.920;2022-07-06T11:18:10;91822.41;;;-144.48;30.76
4123;BME280;2075;51.062;6.920;2022-07-06T11:21:14;91895.50;;;-144.48;30.44
4123;BME280;2075;51.062;6.920;2022-07-06T11:24:00;91800.09;;;-144.48;30.89
4123;BME280;2075;51.062;6.920;2022-07-06T11:26:47;91925.97;;;-144.48;30.48
4123;BME280;2075;51.062;6.920;2022-07-06T11:29:34;91982.81;;;-144.48;31.17
4123;BME280;2075;51.062;6.920;2022-07-06T11:32:25;92157.41;;;-144.48;31.81
4123;BME280;2075;51.062;6.920;2022-07-06T11:35:10;91976.72;;;-144.48;30.74
4123;BME280;2075;51.062;6.920;2022-07-06T11:37:56;91865.03;;;-144.48;30.40
4123;BME280;2075;51.062;6.920;2022-07-06T11:40:41;91816.31;;;-144.48;29.71
4123;BME280;2075;51.062;6.920;2022-07-06T11:43:27;91771.66;;;-144.48;29.79
4123;BME280;2075;51.062;6.920;2022-07-06T11:46:23;91692.47;;;-144.48;30.57
4123;BME280;2075;51.062;6.920;2022-07-06T11:49:11;91899.56;;;-144.48;30.66
4123;BME280;2075;51.062;6.920;2022-07-06T11:51:56;91881.28;;;-144.48;30.79
4123;BME280;2075;51.062;6.920;2022-07-06T11:54:42;91861.00;;;-144.48;30.38
4123;BME280;2075;51.062;6.920;2022-07-06T11:57:30;91885.34;;;-144.48;30.75
4123;BME280;2075;51.062;6.920;2022-07-06T12:00:20;91686.38;;;-144.48;30.04
4123;BME280;2075;51.062;6.920;2022-07-06T12:03:06;91796.03;;;-144.48;30.77
4123;BME280;2075;51.062;6.920;2022-07-06T12:05:53;91958.44;;;-144.48;31.14
4123;BME280;2075;51.062;6.920;2022-07-06T12:08:43;92059.97;;;-144.48;31.71
4123;BME280;2075;51.062;6.920;2022-07-06T12:11:29;91960.47;;;-144.48;30.83
4123;BME280;2075;51.062;6.920;2022-07-06T12:14:16;91992.97;;;-144.48;30.70
4123;BME280;2075;51.062;6.920;2022-07-06T12:17:04;92131.03;;;-144.48;31.54
4123;BME280;2075;51.062;6.920;2022-07-06T12:19:53;92177.72;;;-144.48;31.78
4123;BME280;2075;51.062;6.920;2022-07-06T12:22:40;91995.00;;;-144.48;30.90
4123;BME280;2075;51.062;6.920;2022-07-06T12:25:29;91869.09;;;-144.48;30.02
4123;BME280;2075;51.062;6.920;2022-07-06T12:28:21;91783.84;;;-144.48;30.05
4123;BME280;2075;51.062;6.920;2022-07-06T12:31:08;91564.59;;;-144.48;28.97
4123;BME280;2075;51.062;6.920;2022-07-06T12:33:56;91666.09;;;-144.48;29.59
4123;BME280;2075;51.062;6.920;2022-07-06T12:36:46;91432.63;;;-144.48;29.53
4123;BME280;2075;51.062;6.920;2022-07-06T12:39:41;91621.44;;;-144.48;29.25
4123;BME280;2075;51.062;6.920;2022-07-06T12:42:27;91613.31;;;-144.48;29.64
4123;BME280;2075;51.062;6.920;2022-07-06T12:45:13;91706.69;;;-144.48;29.42
4123;BME280;2075;51.062;6.920;2022-07-06T12:48:00;91635.63;;;-144.48;29.31
4123;BME280;2075;51.062;6.920;2022-07-06T12:50:46;91727.00;;;-144.48;29.46
4123;BME280;2075;51.062;6.920;2022-07-06T12:53:32;91747.28;;;-144.48;29.53
4123;BME280;2075;51.062;6.920;2022-07-06T12:56:19;91729.03;;;-144.48;29.79
4123;BME280;2075;51.062;6.920;2022-07-06T12:59:04;91751.34;;;-144.48;30.21
4123;BME280;2075;51.062;6.920;2022-07-06T13:01:51;91739.19;;;-144.48;30.16
4123;BME280;2075;51.062;6.920;2022-07-06T13:04:40;91743.22;;;-144.48;29.88
4123;BME280;2075;51.062;6.920;2022-07-06T13:07:26;91625.50;;;-144.48;30.29
4123;BME280;2075;51.062;6.920;2022-07-06T13:10:13;91783.84;;;-144.48;30.35
4123;BME280;2075;51.062;6.920;2022-07-06T13:13:00;91806.16;;;-144.48;30.74
4123;BME280;2075;51.062;6.920;2022-07-06T13:15:46;91869.09;;;-144.48;30.97
4123;BME280;2075;51.062;6.920;2022-07-06T13:18:31;91895.50;;;-144.48;31.28
4123;BME280;2075;51.062;6.920;2022-07-06T13:21:18;91972.66;;;-144.48;31.55
4123;BME280;2075;51.062;6.920;2022-07-06T13:24:05;91903.63;;;-144.48;31.18
4123;BME280;2075;51.062;6.920;2022-07-06T13:26:50;91885.34;;;-144.48;30.68
4123;BME280;2075;51.062;6.920;2022-07-06T13:29:37;91781.81;;;-144.48;30.41
4123;BME280;2075;51.062;6.920;2022-07-06T13:32:23;91889.41;;;-144.48;31.00
4123;BME280;2075;51.062;6.920;2022-07-06T13:35:08;91950.31;;;-144.48;31.36
4123;BME280;2075;51.062;6.920;2022-07-06T13:37:54;91897.53;;;-144.48;31.58
4123;BME280;2075;51.062;6.920;2022-07-06T13:40:40;91917.84;;;-144.48;31.58
4123;BME280;2075;51.062;6.920;2022-07-06T13:43:28;91958.44;;;-144.48;32.21
4123;BME280;2075;51.062;6.920;2022-07-06T13:46:21;91964.53;;;-144.48;32.64
4123;BME280;2075;51.062;6.920;2022-07-06T13:49:07;92017.31;;;-144.48;32.57
4123;BME280;2075;51.062;6.920;2022-07-06T13:51:52;92082.28;;;-144.48;32.84
4123;BME280;2075;51.062;6.920;2022-07-06T13:54:39;91936.09;;;-144.48;32.29
4123;BME280;2075;51.062;6.920;2022-07-06T13:57:24;91940.16;;;-144.48;32.03
4123;BME280;2075;51.062;6.920;2022-07-06T14:00:11;92116.81;;;-144.48;32.61
4123;BME280;2075;51.062;6.920;2022-07-06T14:02:59;91958.44;;;-144.48;32.47
4123;BME280;2075;51.062;6.920;2022-07-06T14:05:45;91877.22;;;-144.48;32.17
4123;BME280;2075;51.062;6.920;2022-07-06T14:08:30;91942.19;;;-144.48;31.85
4123;BME280;2075;51.062;6.920;2022-07-06T14:11:16;91964.53;;;-144.48;31.02
4123;BME280;2075;51.062;6.920;2022-07-06T14:14:01;92007.16;;;-144.48;31.68
4123;BME280;2075;51.062;6.920;2022-07-06T14:16:47;91978.75;;;-144.48;31.45
4123;BME280;2075;51.062;6.920;2022-07-06T14:19:34;91771.66;;;-144.48;32.39
4123;BME280;2075;51.062;6.920;2022-07-06T14:22:20;91984.84;;;-144.48;32.16
4123;BME280;2075;51.062;6.920;2022-07-06T14:25:06;92055.91;;;-144.48;32.23
4123;BME280;2075;51.062;6.920;2022-07-06T14:27:52;92126.97;;;-144.48;32.07
4123;BME280;2075;51.062;6.920;2022-07-06T14:30:37;92287.38;;;-144.48;32.54
4123;BME280;2075;51.062;6.920;2022-07-06T14:33:23;92187.88;;;-144.48;32.58
4123;BME280;2075;51.062;6.920;2022-07-06T14:36:10;92193.97;;;-144.48;32.55
4123;BME280;2075;51.062;6.920;2022-07-06T14:38:56;92092.44;;;-144.48;32.41
4123;BME280;2075;51.062;6.920;2022-07-06T14:41:41;92200.06;;;-144.48;32.34
4123;BME280;2075;51.062;6.920;2022-07-06T14:44:27;92177.72;;;-144.48;32.47
4123;BME280;2075;51.062;6.920;2022-07-06T14:47:12;92285.34;;;-144.48;32.91
4123;BME280;2075;51.062;6.920;2022-07-06T14:49:58;92299.56;;;-144.48;32.81